Time;durP1;ratioP1;P1;durP2;ratioP2;P2;SDS_P1;SDS_P2;PMS_P1;PMS_P2;Temp;Humidity;BMP_temperature;BMP_pressure;BME280_temperature;BME280_humidity;BME280_pressure;Samples;Min_cycle;Max_cycle;Signal;HPM_P1;HPM_P2
2022/06/11 00:01:52;;;;;;;;;;;17.90;93.90;;;;;;5099147;28;20022;-81
2022/06/11 00:04:20;;;;;;;;;;;17.80;93.90;;;;;;5087353;28;20291;-80
2022/06/11 00:06:49;;;;;;;;;;;17.80;93.90;;;;;;5087437;28;20526;-80
2022/06/11 00:12:15;;;;;;;;;;;17.70;93.70;;;;;;5072671;28;19971;-84
2022/06/11 00:14:43;;;;;;;;;;;17.70;94.00;;;;;;5076297;28;20370;-85
2022/06/11 00:17:12;;;;;;;;;;;17.70;94.00;;;;;;5076680;28;19925;-84
2022/06/11 00:19:40;;;;;;;;;;;17.60;94.00;;;;;;5074214;28;19975;-84
2022/06/11 00:22:07;;;;;;;;;;;17.60;94.00;;;;;;5055628;28;19944;-85
2022/06/11 00:24:36;;;;;;;;;;;17.60;94.00;;;;;;5079890;28;19931;-85
2022/06/11 00:27:03;;;;;;;;;;;17.50;94.00;;;;;;5075827;28;19995;-84
2022/06/11 00:29:33;;;;;;;;;;;17.50;94.00;;;;;;5071562;28;19924;-84
2022/06/11 00:32:00;;;;;;;;;;;17.50;94.00;;;;;;5070839;28;19929;-84
2022/06/11 00:34:28;;;;;;;;;;;17.40;94.00;;;;;;5078950;28;19964;-84
2022/06/11 00:36:55;;;;;;;;;;;17.40;94.00;;;;;;5075344;28;19928;-85
2022/06/11 00:39:23;;;;;;;;;;;17.40;94.00;;;;;;5074226;28;19978;-85
2022/06/11 00:41:51;;;;;;;;;;;17.30;94.00;;;;;;5074147;28;20138;-85
2022/06/11 00:44:18;;;;;;;;;;;17.30;94.00;;;;;;5076806;28;19934;-84
2022/06/11 00:46:50;;;;;;;;;;;17.30;94.10;;;;;;5055793;28;19929;-84
2022/06/11 00:49:21;;;;;;;;;;;17.30;94.10;;;;;;5056747;28;20011;-84
2022/06/11 00:51:48;;;;;;;;;;;17.20;94.10;;;;;;5051387;28;19940;-85
2022/06/11 00:54:18;;;;;;;;;;;17.20;94.10;;;;;;5062503;28;19925;-85
2022/06/11 00:56:46;;;;;;;;;;;17.20;94.10;;;;;;5074749;28;19951;-84
2022/06/11 00:59:16;;;;;;;;;;;17.10;94.10;;;;;;5074361;28;19925;-84
2022/06/11 01:01:43;;;;;;;;;;;17.10;94.10;;;;;;5049697;28;19932;-83
2022/06/11 01:04:25;;;;;;;;;;;17.10;94.10;;;;;;5072895;28;20317;-85
2022/06/11 01:06:56;;;;;;;;;;;17.10;94.20;;;;;;5056846;28;20279;-85
2022/06/11 01:09:30;;;;;;;;;;;17.00;94.20;;;;;;5054225;28;19938;-85
2022/06/11 01:12:07;;;;;;;;;;;17.00;94.20;;;;;;5071159;28;19948;-85
2022/06/11 01:14:41;;;;;;;;;;;17.00;94.20;;;;;;5078357;28;20397;-84
2022/06/11 01:17:12;;;;;;;;;;;16.90;94.20;;;;;;5055814;28;19955;-83
2022/06/11 01:19:57;;;;;;;;;;;16.90;94.10;;;;;;5052277;28;19925;-84
2022/06/11 01:22:35;;;;;;;;;;;16.90;94.20;;;;;;5057372;28;19932;-84
2022/06/11 01:25:06;;;;;;;;;;;16.90;94.20;;;;;;5077831;28;19931;-85
2022/06/11 01:27:41;;;;;;;;;;;16.80;94.20;;;;;;5074978;28;19977;-85
2022/06/11 01:30:09;;;;;;;;;;;16.80;94.20;;;;;;5071923;28;19924;-84
2022/06/11 01:32:42;;;;;;;;;;;16.80;94.20;;;;;;5069415;28;19938;-85
2022/06/11 01:35:19;;;;;;;;;;;16.70;94.20;;;;;;5070091;28;19935;-83
2022/06/11 01:37:47;;;;;;;;;;;16.70;94.20;;;;;;5055712;28;19925;-84
2022/06/11 01:40:18;;;;;;;;;;;16.70;94.20;;;;;;5065797;28;20387;-84
2022/06/11 01:42:47;;;;;;;;;;;16.70;94.20;;;;;;5055773;28;19928;-84
2022/06/11 01:45:18;;;;;;;;;;;16.60;94.20;;;;;;5071655;28;19928;-85
2022/06/11 01:47:46;;;;;;;;;;;16.60;94.20;;;;;;5059049;28;19924;-84
2022/06/11 01:50:15;;;;;;;;;;;16.60;94.20;;;;;;5076352;28;19950;-85
2022/06/11 01:53:03;;;;;;;;;;;16.50;94.10;;;;;;5075255;28;19944;-85
2022/06/11 01:55:35;;;;;;;;;;;16.50;94.40;;;;;;5070874;28;19978;-84
2022/06/11 01:58:16;;;;;;;;;;;16.50;94.10;;;;;;5074317;28;19924;-85
2022/06/11 02:00:48;;;;;;;;;;;16.50;94.10;;;;;;5054448;28;19928;-84
2022/06/11 02:03:22;;;;;;;;;;;16.40;94.10;;;;;;5065405;28;19954;-85
2022/06/11 02:05:54;;;;;;;;;;;16.40;94.10;;;;;;5071098;28;20189;-85
2022/06/11 02:08:23;;;;;;;;;;;16.40;94.10;;;;;;5072627;28;19944;-85
2022/06/11 02:10:55;;;;;;;;;;;16.30;94.10;;;;;;5068877;28;19932;-85
2022/06/11 02:13:26;;;;;;;;;;;16.30;94.10;;;;;;5075007;28;19924;-84
2022/06/11 02:15:57;;;;;;;;;;;16.30;94.00;;;;;;5055924;28;19931;-85
2022/06/11 02:18:25;;;;;;;;;;;16.20;94.00;;;;;;5057301;28;19925;-84
2022/06/11 02:20:55;;;;;;;;;;;16.20;93.90;;;;;;5065946;28;20610;-85
2022/06/11 02:23:24;;;;;;;;;;;16.20;93.90;;;;;;5077920;28;20315;-85
2022/06/11 02:25:52;;;;;;;;;;;16.10;93.90;;;;;;5056518;28;20005;-85
2022/06/11 02:28:21;;;;;;;;;;;16.10;94.00;;;;;;5064636;28;19992;-84
2022/06/11 02:30:49;;;;;;;;;;;16.10;94.10;;;;;;5053969;28;20018;-85
2022/06/11 02:33:19;;;;;;;;;;;16.10;94.00;;;;;;5076149;28;19925;-84
2022/06/11 02:35:47;;;;;;;;;;;16.00;94.10;;;;;;5054453;28;19978;-84
2022/06/11 02:38:16;;;;;;;;;;;16.00;94.30;;;;;;5071804;28;19936;-85
2022/06/11 02:40:44;;;;;;;;;;;16.00;94.10;;;;;;5080270;28;19925;-84
2022/06/11 02:43:11;;;;;;;;;;;15.90;94.00;;;;;;5074343;28;19970;-84
2022/06/11 02:45:38;;;;;;;;;;;15.90;94.10;;;;;;5058138;28;19924;-85
2022/06/11 02:48:05;;;;;;;;;;;15.90;94.20;;;;;;5069340;28;19925;-84
2022/06/11 02:50:35;;;;;;;;;;;15.80;94.20;;;;;;5055651;28;19955;-84
2022/06/11 02:53:05;;;;;;;;;;;15.80;94.20;;;;;;5072613;28;20413;-84
2022/06/11 02:55:32;;;;;;;;;;;15.80;94.20;;;;;;5049027;28;19928;-83
2022/06/11 02:57:59;;;;;;;;;;;15.80;94.20;;;;;;5073278;28;19932;-84
2022/06/11 03:00:30;;;;;;;;;;;15.80;94.20;;;;;;5076495;28;19959;-85
2022/06/11 03:02:57;;;;;;;;;;;15.70;94.30;;;;;;5067469;28;19925;-84
2022/06/11 03:05:26;;;;;;;;;;;15.70;94.20;;;;;;5071661;28;19924;-84
2022/06/11 03:07:54;;;;;;;;;;;15.70;94.20;;;;;;5059619;28;19940;-84
2022/06/11 03:10:23;;;;;;;;;;;15.70;94.20;;;;;;5076673;28;19924;-85
2022/06/11 03:12:50;;;;;;;;;;;15.60;94.30;;;;;;5074213;28;19933;-85
2022/06/11 03:15:17;;;;;;;;;;;15.60;94.30;;;;;;5062830;28;20011;-84
2022/06/11 03:17:45;;;;;;;;;;;15.60;94.40;;;;;;5075591;28;19944;-84
2022/06/11 03:20:14;;;;;;;;;;;15.60;94.40;;;;;;5076242;28;19936;-83
2022/06/11 03:22:40;;;;;;;;;;;15.50;94.40;;;;;;5074198;28;19935;-85
2022/06/11 03:25:09;;;;;;;;;;;15.50;94.50;;;;;;5077100;28;19931;-85
2022/06/11 03:27:38;;;;;;;;;;;15.50;94.50;;;;;;5055045;28;19936;-85
2022/06/11 03:30:06;;;;;;;;;;;15.50;94.50;;;;;;5071537;28;19924;-84
2022/06/11 03:32:33;;;;;;;;;;;15.40;94.40;;;;;;5075576;28;19964;-82
2022/06/11 03:35:00;;;;;;;;;;;15.40;94.40;;;;;;5059062;28;19932;-85
2022/06/11 03:37:27;;;;;;;;;;;15.40;94.50;;;;;;5075404;28;19925;-84
2022/06/11 03:39:54;;;;;;;;;;;15.40;94.40;;;;;;5072732;28;19932;-85
2022/06/11 03:42:22;;;;;;;;;;;15.40;94.50;;;;;;5062872;28;19940;-84
2022/06/11 03:44:49;;;;;;;;;;;15.30;94.30;;;;;;5059253;28;19928;-84
2022/06/11 03:47:18;;;;;;;;;;;15.30;94.40;;;;;;5053653;28;19939;-85
2022/06/11 03:49:46;;;;;;;;;;;15.30;94.40;;;;;;5055030;28;20416;-84
2022/06/11 03:52:13;;;;;;;;;;;15.30;94.40;;;;;;5075711;28;21052;-84
2022/06/11 03:54:40;;;;;;;;;;;15.20;94.40;;;;;;5066086;28;20378;-84
2022/06/11 03:57:07;;;;;;;;;;;;;;;;;;5077034;28;19925;-83
2022/06/11 03:59:35;;;;;;;;;;;15.20;94.20;;;;;;5077177;28;19932;-85
2022/06/11 04:02:02;;;;;;;;;;;15.20;94.40;;;;;;5057333;28;20153;-85
2022/06/11 04:04:29;;;;;;;;;;;15.20;94.40;;;;;;5077805;28;19924;-85
2022/06/11 04:06:58;;;;;;;;;;;15.10;94.40;;;;;;5076795;28;19930;-84
2022/06/11 04:09:26;;;;;;;;;;;15.10;94.50;;;;;;5075371;28;19986;-85
2022/06/11 04:11:53;;;;;;;;;;;15.10;94.50;;;;;;5075894;28;19929;-84
2022/06/11 04:14:20;;;;;;;;;;;15.00;94.50;;;;;;5057588;28;19932;-85
2022/06/11 04:16:50;;;;;;;;;;;15.00;94.50;;;;;;5073748;28;19925;-85
2022/06/11 04:19:19;;;;;;;;;;;15.00;94.60;;;;;;5076827;28;20512;-85
2022/06/11 04:21:46;;;;;;;;;;;15.00;94.60;;;;;;5068310;28;20016;-84
2022/06/11 04:24:13;;;;;;;;;;;;;;;;;;5058157;28;19978;-85
2022/06/11 04:26:41;;;;;;;;;;;15.00;94.50;;;;;;5073828;28;19924;-84
2022/06/11 04:29:09;;;;;;;;;;;14.90;94.70;;;;;;5075280;28;20934;-84
2022/06/11 04:31:36;;;;;;;;;;;14.90;94.70;;;;;;5071336;28;19958;-84
2022/06/11 04:34:05;;;;;;;;;;;14.90;94.70;;;;;;5061407;28;19932;-85
2022/06/11 04:36:34;;;;;;;;;;;14.90;94.70;;;;;;5072925;28;19935;-85
2022/06/11 04:39:01;;;;;;;;;;;14.90;94.70;;;;;;5060061;28;19935;-85
2022/06/11 04:41:28;;;;;;;;;;;14.80;94.70;;;;;;5059782;28;19932;-84
2022/06/11 04:43:55;;;;;;;;;;;14.80;94.70;;;;;;5077918;28;19924;-84
2022/06/11 04:46:22;;;;;;;;;;;14.80;94.70;;;;;;5077581;28;20378;-85
2022/06/11 04:48:49;;;;;;;;;;;14.80;94.60;;;;;;5052033;28;19936;-84
2022/06/11 04:51:19;;;;;;;;;;;14.80;94.60;;;;;;5075812;28;19959;-84
2022/06/11 04:53:46;;;;;;;;;;;14.80;94.60;;;;;;5071707;28;20611;-84
2022/06/11 04:56:14;;;;;;;;;;;14.70;94.60;;;;;;5074874;28;19925;-85
2022/06/11 04:58:42;;;;;;;;;;;14.70;94.50;;;;;;5059576;28;20395;-85
2022/06/11 05:01:09;;;;;;;;;;;14.60;94.30;;;;;;5070180;28;19931;-84
2022/06/11 05:03:35;;;;;;;;;;;14.50;95.10;;;;;;5074296;28;19930;-85
2022/06/11 05:06:03;;;;;;;;;;;14.40;95.20;;;;;;5058547;28;20441;-84
2022/06/11 05:08:31;;;;;;;;;;;14.30;95.30;;;;;;5070168;28;20394;-85
2022/06/11 05:10:58;;;;;;;;;;;14.30;95.40;;;;;;5049057;28;19924;-85
2022/06/11 05:13:25;;;;;;;;;;;14.30;95.60;;;;;;5072379;28;19925;-85
2022/06/11 05:15:57;;;;;;;;;;;14.30;95.70;;;;;;5055192;28;19928;-84
2022/06/11 05:18:24;;;;;;;;;;;14.30;95.80;;;;;;5075119;28;19932;-85
2022/06/11 05:20:51;;;;;;;;;;;14.30;95.90;;;;;;5067494;28;19925;-84
2022/06/11 05:23:18;;;;;;;;;;;14.30;95.90;;;;;;5080497;28;19982;-85
2022/06/11 05:25:46;;;;;;;;;;;14.30;95.90;;;;;;5056090;28;19988;-85
2022/06/11 05:28:15;;;;;;;;;;;14.40;96.00;;;;;;5070653;28;19998;-83
2022/06/11 05:30:42;;;;;;;;;;;14.40;95.90;;;;;;5074463;28;19932;-84
2022/06/11 05:33:09;;;;;;;;;;;14.40;95.90;;;;;;5068770;28;19924;-85
2022/06/11 05:35:36;;;;;;;;;;;14.40;95.90;;;;;;5071894;28;20381;-84
2022/06/11 05:38:05;;;;;;;;;;;14.40;95.90;;;;;;5072460;28;19972;-83
2022/06/11 05:40:34;;;;;;;;;;;14.40;95.90;;;;;;5071122;28;19925;-84
2022/06/11 05:43:02;;;;;;;;;;;14.50;96.10;;;;;;5049467;28;19936;-84
2022/06/11 05:45:31;;;;;;;;;;;14.50;96.10;;;;;;5057615;28;19931;-85
2022/06/11 05:47:59;;;;;;;;;;;14.50;96.10;;;;;;5071344;28;19932;-84
2022/06/11 05:50:29;;;;;;;;;;;14.60;96.20;;;;;;5073101;28;19963;-84
2022/06/11 05:52:56;;;;;;;;;;;14.60;96.30;;;;;;5075575;28;19925;-85
2022/06/11 05:55:25;;;;;;;;;;;14.70;96.30;;;;;;5067448;28;19932;-84
2022/06/11 05:57:52;;;;;;;;;;;14.70;96.30;;;;;;5071108;28;19987;-85
2022/06/11 06:00:21;;;;;;;;;;;14.70;96.30;;;;;;5076988;28;19929;-84
2022/06/11 06:02:48;;;;;;;;;;;14.80;96.40;;;;;;5053233;28;20027;-85
2022/06/11 06:05:17;;;;;;;;;;;14.80;96.40;;;;;;5073318;28;19932;-84
2022/06/11 06:07:43;;;;;;;;;;;14.90;96.50;;;;;;5071894;28;20456;-84
2022/06/11 06:10:11;;;;;;;;;;;14.90;96.50;;;;;;5056778;28;20019;-84
2022/06/11 06:12:38;;;;;;;;;;;14.90;96.50;;;;;;5048478;28;19994;-84
2022/06/11 06:15:06;;;;;;;;;;;14.90;96.60;;;;;;5049998;28;19925;-84
2022/06/11 06:17:34;;;;;;;;;;;14.90;96.60;;;;;;5038688;28;19950;-83
2022/06/11 06:20:01;;;;;;;;;;;14.90;96.70;;;;;;5044696;28;19989;-83
2022/06/11 06:22:28;;;;;;;;;;;15.00;96.80;;;;;;5056854;28;20422;-81
2022/06/11 06:24:55;;;;;;;;;;;14.90;96.90;;;;;;5050651;28;19975;-85
2022/06/11 06:27:22;;;;;;;;;;;15.20;98.10;;;;;;5044042;28;19931;-86
2022/06/11 06:29:49;;;;;;;;;;;15.40;98.20;;;;;;5048591;28;19954;-84
2022/06/11 06:32:16;;;;;;;;;;;15.50;98.50;;;;;;5070545;28;19932;-85
2022/06/11 06:34:45;;;;;;;;;;;15.70;98.80;;;;;;5044690;28;19935;-87
2022/06/11 06:37:12;;;;;;;;;;;15.80;98.80;;;;;;5066205;28;19937;-85
2022/06/11 06:39:39;;;;;;;;;;;15.90;99.10;;;;;;5051046;28;20015;-84
2022/06/11 06:42:07;;;;;;;;;;;16.00;99.10;;;;;;5066790;28;19924;-84
2022/06/11 06:44:36;;;;;;;;;;;16.20;99.10;;;;;;5053516;28;19925;-84
2022/06/11 06:47:03;;;;;;;;;;;16.30;99.20;;;;;;5065163;28;20377;-84
2022/06/11 06:49:30;;;;;;;;;;;16.40;99.20;;;;;;5067633;28;20429;-83
2022/06/11 06:51:59;;;;;;;;;;;16.50;99.10;;;;;;5064977;28;19950;-84
2022/06/11 06:54:26;;;;;;;;;;;16.60;99.20;;;;;;5045213;28;19936;-83
2022/06/11 06:56:53;;;;;;;;;;;16.60;99.20;;;;;;5068259;28;19924;-83
2022/06/11 06:59:19;;;;;;;;;;;16.70;99.20;;;;;;5050583;28;19925;-83
2022/06/11 07:01:47;;;;;;;;;;;16.80;99.20;;;;;;5143438;22;19928;-87
2022/06/11 07:04:14;;;;;;;;;;;16.90;99.20;;;;;;5086407;28;19930;-86
2022/06/11 07:06:41;;;;;;;;;;;17.00;99.30;;;;;;5077986;28;20260;-86
2022/06/11 07:09:10;;;;;;;;;;;17.10;99.20;;;;;;5050452;28;20378;-86
2022/06/11 07:11:37;;;;;;;;;;;17.10;99.10;;;;;;5064425;28;20592;-86
2022/06/11 07:14:04;;;;;;;;;;;17.30;99.00;;;;;;5054928;28;19972;-86
2022/06/11 07:16:33;;;;;;;;;;;17.30;99.00;;;;;;5045181;28;20390;-86
2022/06/11 07:19:01;;;;;;;;;;;17.30;99.00;;;;;;5078350;28;19924;-85
2022/06/11 07:21:29;;;;;;;;;;;17.30;98.80;;;;;;5053081;28;20301;-85
2022/06/11 07:23:58;;;;;;;;;;;17.40;98.80;;;;;;5068693;28;19927;-86
2022/06/11 07:26:29;;;;;;;;;;;17.40;98.90;;;;;;5080241;28;19939;-86
2022/06/11 07:28:59;;;;;;;;;;;17.50;98.60;;;;;;5068278;28;20343;-85
2022/06/11 07:31:26;;;;;;;;;;;17.50;98.60;;;;;;5063201;28;19931;-86
2022/06/11 07:33:53;;;;;;;;;;;17.60;98.90;;;;;;5062369;28;19956;-86
2022/06/11 07:36:20;;;;;;;;;;;17.70;98.60;;;;;;5068080;28;20019;-85
2022/06/11 07:38:47;;;;;;;;;;;17.70;98.70;;;;;;5058904;28;19937;-86
2022/06/11 07:41:14;;;;;;;;;;;17.90;99.10;;;;;;5033787;28;19950;-84
2022/06/11 07:43:42;;;;;;;;;;;18.00;99.00;;;;;;5052212;28;20245;-84
2022/06/11 07:46:09;;;;;;;;;;;18.00;98.90;;;;;;5049011;28;20376;-82
2022/06/11 07:48:36;;;;;;;;;;;18.10;98.60;;;;;;5046608;28;19936;-83
2022/06/11 07:51:04;;;;;;;;;;;18.20;98.60;;;;;;5062914;28;19944;-83
2022/06/11 07:53:32;;;;;;;;;;;18.20;97.90;;;;;;5066450;28;19929;-83
2022/06/11 07:55:59;;;;;;;;;;;18.30;97.70;;;;;;5037529;28;19958;-83
2022/06/11 07:58:26;;;;;;;;;;;18.40;97.60;;;;;;5060725;28;19929;-82
2022/06/11 08:00:54;;;;;;;;;;;18.40;97.50;;;;;;5055813;28;20149;-81
2022/06/11 08:03:22;;;;;;;;;;;18.40;97.60;;;;;;5044624;28;20154;-83
2022/06/11 08:05:49;;;;;;;;;;;18.40;97.50;;;;;;5057610;28;19970;-83
2022/06/11 08:08:18;;;;;;;;;;;18.50;97.60;;;;;;5054639;28;19924;-87
2022/06/11 08:10:46;;;;;;;;;;;18.50;97.70;;;;;;5055092;28;20310;-83
2022/06/11 08:13:13;;;;;;;;;;;18.50;97.90;;;;;;5058899;28;20587;-80
2022/06/11 08:15:41;;;;;;;;;;;18.60;97.80;;;;;;5058976;28;20017;-82
2022/06/11 08:18:09;;;;;;;;;;;18.60;97.60;;;;;;5035753;28;19929;-82
2022/06/11 08:20:36;;;;;;;;;;;18.70;97.40;;;;;;5054781;28;20055;-81
2022/06/11 08:23:03;;;;;;;;;;;18.80;96.20;;;;;;5041853;28;19932;-80
2022/06/11 08:25:31;;;;;;;;;;;18.80;95.10;;;;;;5057382;28;19924;-80
2022/06/11 08:27:57;;;;;;;;;;;18.90;95.40;;;;;;5059958;28;19924;-86
2022/06/11 08:30:26;;;;;;;;;;;19.00;95.30;;;;;;5063979;28;19924;-84
2022/06/11 08:32:52;;;;;;;;;;;19.00;95.10;;;;;;5059617;28;20383;-82
2022/06/11 08:35:22;;;;;;;;;;;19.00;94.80;;;;;;5043466;28;19933;-80
2022/06/11 08:37:49;;;;;;;;;;;19.00;94.80;;;;;;5060930;28;19986;-81
2022/06/11 08:40:20;;;;;;;;;;;18.90;95.00;;;;;;5056529;28;19978;-80
2022/06/11 08:42:50;;;;;;;;;;;18.90;95.10;;;;;;5032669;28;20276;-80
2022/06/11 08:45:19;;;;;;;;;;;19.00;95.00;;;;;;5035208;28;20429;-80
2022/06/11 08:47:49;;;;;;;;;;;19.00;95.00;;;;;;5047673;28;19924;-80
2022/06/11 08:50:20;;;;;;;;;;;19.00;95.00;;;;;;5058625;28;20305;-81
2022/06/11 08:52:49;;;;;;;;;;;19.00;95.20;;;;;;5049930;28;19924;-80
2022/06/11 08:55:16;;;;;;;;;;;19.10;95.10;;;;;;5019855;28;19948;-81
2022/06/11 08:57:51;;;;;;;;;;;19.10;94.70;;;;;;5038469;28;21874;-80
2022/06/11 09:00:19;;;;;;;;;;;19.20;95.00;;;;;;5025741;28;20014;-81
2022/06/11 09:02:58;;;;;;;;;;;19.20;94.90;;;;;;5049937;28;19970;-81
2022/06/11 09:05:42;;;;;;;;;;;19.30;95.00;;;;;;5053046;28;20308;-79
2022/06/11 09:08:20;;;;;;;;;;;19.40;94.70;;;;;;5052691;28;19936;-78
2022/06/11 09:10:59;;;;;;;;;;;19.40;95.20;;;;;;5056352;28;19925;-79
2022/06/11 09:13:39;;;;;;;;;;;19.40;94.40;;;;;;5053748;28;20016;-79
2022/06/11 09:16:12;;;;;;;;;;;19.50;94.30;;;;;;5052977;28;19933;-79
2022/06/11 09:18:57;;;;;;;;;;;19.60;94.00;;;;;;5045238;28;19932;-79
2022/06/11 09:21:32;;;;;;;;;;;19.60;93.60;;;;;;5018807;28;20387;-79
2022/06/11 09:24:08;;;;;;;;;;;19.60;93.30;;;;;;5054892;28;19929;-80
2022/06/11 09:26:43;;;;;;;;;;;19.50;92.50;;;;;;5033100;28;19931;-79
2022/06/11 09:29:14;;;;;;;;;;;19.50;92.60;;;;;;5036591;28;19924;-80
2022/06/11 09:31:44;;;;;;;;;;;19.60;91.90;;;;;;5057757;28;19975;-79
2022/06/11 09:34:12;;;;;;;;;;;19.50;91.70;;;;;;5055991;28;19942;-80
2022/06/11 09:36:40;;;;;;;;;;;19.50;92.30;;;;;;5054342;28;20379;-81
2022/06/11 09:39:12;;;;;;;;;;;19.40;92.70;;;;;;5040737;28;19932;-81
2022/06/11 09:41:44;;;;;;;;;;;19.40;92.30;;;;;;5038570;28;19932;-79
2022/06/11 09:44:20;;;;;;;;;;;19.50;92.70;;;;;;5029315;28;19964;-82
2022/06/11 09:46:52;;;;;;;;;;;19.50;93.10;;;;;;5058296;28;19932;-81
2022/06/11 09:49:24;;;;;;;;;;;19.70;92.00;;;;;;5062562;28;19993;-81
2022/06/11 09:51:55;;;;;;;;;;;19.70;92.10;;;;;;5050808;28;20020;-90
2022/06/11 09:54:35;;;;;;;;;;;19.70;92.10;;;;;;5054282;28;19944;-83
2022/06/11 09:57:05;;;;;;;;;;;19.60;92.60;;;;;;5052276;28;19928;-83
2022/06/11 09:59:36;;;;;;;;;;;19.50;93.30;;;;;;5061423;28;19924;-82
2022/06/11 10:02:16;;;;;;;;;;;19.30;93.70;;;;;;5047456;28;21093;-80
2022/06/11 10:04:44;;;;;;;;;;;19.20;94.00;;;;;;5049404;28;21125;-81
2022/06/11 10:07:13;;;;;;;;;;;19.10;94.20;;;;;;5058897;28;19946;-81
2022/06/11 10:09:43;;;;;;;;;;;19.10;94.30;;;;;;5062228;28;20394;-77
2022/06/11 10:12:15;;;;;;;;;;;19.10;94.00;;;;;;5032583;28;19940;-75
2022/06/11 10:14:45;;;;;;;;;;;19.40;92.50;;;;;;5058577;28;19935;-75
2022/06/11 10:17:16;;;;;;;;;;;19.50;91.60;;;;;;5052937;28;19928;-76
2022/06/11 10:19:45;;;;;;;;;;;19.50;91.60;;;;;;5056488;28;20422;-75
2022/06/11 10:22:15;;;;;;;;;;;19.60;92.00;;;;;;5050029;28;20094;-83
2022/06/11 10:24:48;;;;;;;;;;;19.70;94.60;;;;;;5059677;28;20023;-81
2022/06/11 10:27:17;;;;;;;;;;;19.70;93.10;;;;;;5063577;28;19935;-82
2022/06/11 10:29:48;;;;;;;;;;;19.50;93.90;;;;;;5049556;28;19964;-81
2022/06/11 10:32:17;;;;;;;;;;;19.40;94.20;;;;;;5063941;28;19923;-82
2022/06/11 10:34:48;;;;;;;;;;;19.60;90.50;;;;;;5044249;28;20292;-82
2022/06/11 10:37:20;;;;;;;;;;;19.70;93.10;;;;;;5063037;28;20626;-82
2022/06/11 10:39:53;;;;;;;;;;;19.90;92.80;;;;;;5052045;28;19929;-82
2022/06/11 10:42:24;;;;;;;;;;;20.10;89.20;;;;;;5038877;28;21951;-80
2022/06/11 10:44:52;;;;;;;;;;;20.30;89.70;;;;;;5053466;28;20278;-81
2022/06/11 10:47:21;;;;;;;;;;;20.40;90.40;;;;;;5045180;28;19932;-80
2022/06/11 10:49:51;;;;;;;;;;;20.50;87.90;;;;;;5035180;28;19924;-80
2022/06/11 10:52:23;;;;;;;;;;;20.40;90.60;;;;;;5059353;28;19951;-83
2022/06/11 10:54:51;;;;;;;;;;;20.50;92.00;;;;;;5057275;28;20386;-80
2022/06/11 10:57:22;;;;;;;;;;;20.50;91.00;;;;;;5043669;28;19932;-81
2022/06/11 10:59:52;;;;;;;;;;;20.50;91.10;;;;;;5060889;28;19978;-83
2022/06/11 11:02:28;;;;;;;;;;;20.90;90.40;;;;;;5041778;28;20019;-81
2022/06/11 11:04:57;;;;;;;;;;;21.00;88.80;;;;;;5062472;28;20310;-81
2022/06/11 11:07:25;;;;;;;;;;;21.10;86.80;;;;;;5052836;28;19933;-82
2022/06/11 11:09:57;;;;;;;;;;;21.00;87.90;;;;;;5054946;28;20192;-81
2022/06/11 11:12:26;;;;;;;;;;;21.10;84.40;;;;;;5054864;28;20949;-81
2022/06/11 11:15:01;;;;;;;;;;;21.10;85.30;;;;;;5057978;28;20417;-82
2022/06/11 11:17:30;;;;;;;;;;;21.10;85.30;;;;;;5058811;28;19932;-81
2022/06/11 11:22:53;;;;;;;;;;;21.20;88.30;;;;;;5055511;28;19938;-80
2022/06/11 11:25:25;;;;;;;;;;;21.40;84.20;;;;;;5051231;28;19924;-81
2022/06/11 11:27:52;;;;;;;;;;;21.40;88.50;;;;;;5057582;28;19928;-81
2022/06/11 11:30:24;;;;;;;;;;;21.40;81.40;;;;;;5056476;28;19932;-81
2022/06/11 11:32:52;;;;;;;;;;;21.60;82.90;;;;;;5043623;28;19924;-79
2022/06/11 11:35:20;;;;;;;;;;;21.60;85.30;;;;;;5064285;28;19939;-80
2022/06/11 11:37:57;;;;;;;;;;;21.70;88.60;;;;;;5064225;28;19928;-81
2022/06/11 11:40:28;;;;;;;;;;;21.90;88.50;;;;;;5048451;28;20072;-79
2022/06/11 11:42:56;;;;;;;;;;;22.00;86.50;;;;;;5053306;28;19924;-78
2022/06/11 11:45:24;;;;;;;;;;;21.90;82.70;;;;;;5049300;28;19932;-78
2022/06/11 11:47:52;;;;;;;;;;;21.90;85.90;;;;;;5055302;28;20324;-78
2022/06/11 11:50:21;;;;;;;;;;;21.80;85.20;;;;;;5057161;28;20039;-78
2022/06/11 11:52:52;;;;;;;;;;;21.70;83.20;;;;;;5060926;28;20051;-78
2022/06/11 11:55:20;;;;;;;;;;;21.70;85.10;;;;;;5055747;28;19932;-78
2022/06/11 11:57:56;;;;;;;;;;;21.80;83.80;;;;;;5060438;28;20365;-78
2022/06/11 12:00:28;;;;;;;;;;;21.90;84.00;;;;;;5062119;28;20408;-79
2022/06/11 12:02:56;;;;;;;;;;;21.90;84.70;;;;;;5060812;28;20573;-78
2022/06/11 12:05:24;;;;;;;;;;;22.20;84.50;;;;;;5040601;28;20028;-79
2022/06/11 12:07:52;;;;;;;;;;;22.20;85.10;;;;;;5059867;28;20434;-78
2022/06/11 12:10:23;;;;;;;;;;;22.10;86.70;;;;;;5054246;28;19935;-78
2022/06/11 12:12:53;;;;;;;;;;;22.00;87.10;;;;;;5059705;28;19936;-78
2022/06/11 12:15:21;;;;;;;;;;;21.90;88.50;;;;;;5054301;28;19924;-79
2022/06/11 12:17:50;;;;;;;;;;;21.90;89.30;;;;;;5051710;28;19955;-80
2022/06/11 12:20:22;;;;;;;;;;;22.20;89.70;;;;;;5042934;28;20647;-79
2022/06/11 12:22:51;;;;;;;;;;;22.70;82.70;;;;;;5042098;28;19932;-80
2022/06/11 12:25:22;;;;;;;;;;;22.50;84.40;;;;;;5057829;28;20350;-80
2022/06/11 12:27:50;;;;;;;;;;;22.40;86.30;;;;;;5060982;28;19929;-80
2022/06/11 12:30:21;;;;;;;;;;;22.30;88.90;;;;;;5055724;28;20006;-80
2022/06/11 12:32:48;;;;;;;;;;;22.30;86.90;;;;;;5055567;28;19939;-80
2022/06/11 12:35:17;;;;;;;;;;;22.30;88.40;;;;;;5063266;28;19924;-80
2022/06/11 12:37:46;;;;;;;;;;;22.20;88.10;;;;;;5060726;28;19925;-80
2022/06/11 12:40:19;;;;;;;;;;;22.30;87.60;;;;;;5063820;28;19935;-79
2022/06/11 12:42:50;;;;;;;;;;;22.40;86.60;;;;;;5058630;28;19932;-79
2022/06/11 12:45:22;;;;;;;;;;;22.40;88.70;;;;;;5061555;28;19958;-78
2022/06/11 12:47:54;;;;;;;;;;;22.40;89.10;;;;;;5062911;28;20398;-78
2022/06/11 12:50:27;;;;;;;;;;;22.60;81.40;;;;;;5062386;28;19932;-77
2022/06/11 12:52:56;;;;;;;;;;;22.50;84.50;;;;;;5063182;28;19944;-78
2022/06/11 12:55:36;;;;;;;;;;;22.50;82.20;;;;;;5066055;28;19929;-79
2022/06/11 12:58:05;;;;;;;;;;;22.40;84.30;;;;;;5044366;28;19992;-77
2022/06/11 13:00:40;;;;;;;;;;;22.40;87.00;;;;;;5034721;28;19985;-77
2022/06/11 13:03:13;;;;;;;;;;;22.30;87.20;;;;;;5043684;22;20026;-79
2022/06/11 13:05:50;;;;;;;;;;;22.40;81.40;;;;;;5063389;28;20275;-78
2022/06/11 13:08:25;;;;;;;;;;;22.70;78.40;;;;;;5061741;28;19924;-79
2022/06/11 13:10:55;;;;;;;;;;;22.90;77.00;;;;;;5074222;28;19925;-80
2022/06/11 13:13:31;;;;;;;;;;;23.30;79.30;;;;;;5061006;28;19970;-79
2022/06/11 13:16:03;;;;;;;;;;;23.60;76.30;;;;;;5077028;28;19931;-79
2022/06/11 13:18:35;;;;;;;;;;;24.00;78.80;;;;;;5082791;28;19935;-80
2022/06/11 13:21:06;;;;;;;;;;;24.00;77.30;;;;;;5083594;28;20649;-79
2022/06/11 13:23:36;;;;;;;;;;;24.10;77.40;;;;;;5068013;28;19924;-79
2022/06/11 13:26:08;;;;;;;;;;;24.10;97.40;;;;;;5085430;28;19932;-79
2022/06/11 13:28:42;;;;;;;;;;;24.20;98.70;;;;;;5089760;28;19924;-80
2022/06/11 13:31:14;;;;;;;;;;;24.20;78.90;;;;;;5082090;28;20000;-80
2022/06/11 13:33:57;;;;;;;;;;;24.00;81.00;;;;;;5080710;28;19932;-83
2022/06/11 13:36:32;;;;;;;;;;;23.90;81.60;;;;;;5072181;28;20025;-83
2022/06/11 13:39:06;;;;;;;;;;;23.80;82.50;;;;;;5065429;28;19928;-83
2022/06/11 13:41:40;;;;;;;;;;;23.70;84.20;;;;;;5077601;28;20348;-84
2022/06/11 13:44:16;;;;;;;;;;;23.70;85.10;;;;;;5086966;28;19939;-84
2022/06/11 13:46:48;;;;;;;;;;;23.70;85.80;;;;;;5072589;28;19939;-82
2022/06/11 13:49:21;;;;;;;;;;;23.60;86.20;;;;;;5068987;28;20021;-84
2022/06/11 13:51:49;;;;;;;;;;;23.70;86.50;;;;;;5064890;28;19928;-84
2022/06/11 13:57:23;;;;;;;;;;;23.70;86.90;;;;;;5076244;28;19931;-84
2022/06/11 13:59:56;;;;;;;;;;;23.70;87.10;;;;;;5045672;28;19936;-83
2022/06/11 14:02:46;;;;;;;;;;;23.70;87.30;;;;;;5081170;28;19925;-85
2022/06/11 14:05:15;;;;;;;;;;;23.70;87.60;;;;;;5085764;28;20012;-82
2022/06/11 14:07:42;;;;;;;;;;;23.70;87.80;;;;;;5075760;28;20394;-82
2022/06/11 14:10:24;;;;;;;;;;;23.80;88.00;;;;;;5075289;28;19931;-81
2022/06/11 14:12:52;;;;;;;;;;;23.80;88.20;;;;;;5066346;28;19935;-81
2022/06/11 14:15:36;;;;;;;;;;;23.80;88.60;;;;;;5079970;28;19932;-83
2022/06/11 14:18:22;;;;;;;;;;;23.90;89.00;;;;;;5076682;28;19932;-84
2022/06/11 14:20:51;;;;;;;;;;;23.90;89.20;;;;;;5061350;28;19940;-81
2022/06/11 14:23:36;;;;;;;;;;;23.90;89.50;;;;;;5075560;28;20322;-83
2022/06/11 14:26:06;;;;;;;;;;;24.00;90.00;;;;;;5079186;28;19935;-84
2022/06/11 14:28:53;;;;;;;;;;;24.00;90.00;;;;;;5078820;28;19977;-84
2022/06/11 14:31:20;;;;;;;;;;;24.10;90.20;;;;;;5055080;28;19928;-82
2022/06/11 14:34:03;;;;;;;;;;;24.10;90.30;;;;;;5059516;28;19968;-83
2022/06/11 14:36:32;;;;;;;;;;;24.20;90.40;;;;;;5055448;28;19932;-84
2022/06/11 14:39:00;;;;;;;;;;;24.30;90.40;;;;;;5059124;28;19924;-84
2022/06/11 14:41:44;;;;;;;;;;;24.30;90.50;;;;;;5058183;28;19929;-84
2022/06/11 14:44:22;;;;;;;;;;;24.40;90.70;;;;;;5076616;28;19924;-84